createdAt,value
2023-04-20T00:02:15.463Z,98244.00
2023-04-20T00:07:37.634Z,98252.00
2023-04-20T00:12:59.071Z,98245.00
2023-04-20T00:18:20.672Z,98237.00
2023-04-20T00:23:42.833Z,98239.00
2023-04-20T00:29:04.159Z,98234.00
2023-04-20T00:34:25.610Z,98235.00
2023-04-20T00:39:47.633Z,98223.00
2023-04-20T00:45:09.717Z,98224.00
2023-04-20T00:50:32.235Z,98216.00
2023-04-20T00:55:53.602Z,98219.00
2023-04-20T01:01:17.880Z,98224.00
2023-04-20T01:06:41.120Z,98210.00
2023-04-20T01:12:02.887Z,98212.00
2023-04-20T01:17:24.358Z,98216.00
2023-04-20T01:22:47.695Z,98214.00
2023-04-20T01:28:09.532Z,98210.00
2023-04-20T01:33:31.489Z,98213.00
2023-04-20T01:38:53.023Z,98213.00
2023-04-20T01:44:15.951Z,98212.00
2023-04-20T01:49:37.433Z,98192.00
2023-04-20T01:54:58.633Z,98199.00
2023-04-20T02:00:20.486Z,98203.00
2023-04-20T02:05:41.945Z,98203.00
2023-04-20T02:11:03.691Z,98197.00
2023-04-20T02:16:25.067Z,98205.00
2023-04-20T02:21:46.459Z,98206.00
2023-04-20T02:27:08.108Z,98209.00
2023-04-20T02:32:29.176Z,98200.00
2023-04-20T02:37:51.413Z,98189.00
2023-04-20T02:43:16.779Z,98186.00
2023-04-20T02:48:38.704Z,98190.00
2023-04-20T02:54:00.014Z,98183.00
2023-04-20T02:59:23.150Z,98194.00
2023-04-20T03:05:08.389Z,98197.00
2023-04-20T03:10:37.283Z,98194.00
2023-04-20T03:16:12.935Z,98201.00
2023-04-20T03:21:38.887Z,98188.00
2023-04-20T03:27:00.204Z,98203.00
2023-04-20T03:32:32.665Z,98182.00
2023-04-20T03:37:56.575Z,98196.00
2023-04-20T03:43:18.265Z,98199.00
2023-04-20T03:48:39.790Z,98188.00
2023-04-20T03:54:01.372Z,98198.00
2023-04-20T03:59:23.958Z,98203.00
2023-04-20T04:04:45.655Z,98195.00
2023-04-20T04:10:07.761Z,98182.00
2023-04-20T04:15:29.373Z,98190.00
2023-04-20T04:20:58.367Z,98202.00
2023-04-20T04:26:24.684Z,98196.00
2023-04-20T04:31:47.586Z,98199.00
2023-04-20T04:37:14.566Z,98190.00
2023-04-20T04:42:42.666Z,98196.00
2023-04-20T04:48:08.612Z,98201.00
2023-04-20T04:53:30.429Z,98188.00
2023-04-20T04:58:51.872Z,98200.00
2023-04-20T05:04:13.639Z,98202.00
2023-04-20T05:09:35.326Z,98217.00
2023-04-20T05:14:56.527Z,98232.00
2023-04-20T05:20:17.910Z,98231.00
2023-04-20T05:25:39.370Z,98230.00
2023-04-20T05:31:01.610Z,98247.00
2023-04-20T05:36:22.719Z,98249.00
2023-04-20T05:41:44.056Z,98247.00
2023-04-20T05:47:08.901Z,98252.00
2023-04-20T05:52:30.415Z,98259.00
2023-04-20T05:57:52.965Z,98268.00
2023-04-20T06:03:14.791Z,98259.00
2023-04-20T06:08:36.598Z,98266.00
2023-04-20T06:14:01.078Z,98269.00
2023-04-20T06:19:22.617Z,98266.00
2023-04-20T06:24:44.410Z,98272.00
2023-04-20T06:30:06.599Z,98269.00
2023-04-20T06:35:28.066Z,98262.00
2023-04-20T06:40:49.427Z,98266.00
2023-04-20T06:46:11.029Z,98254.00
2023-04-20T06:51:33.319Z,98255.00
2023-04-20T06:56:54.894Z,98254.00
2023-04-20T07:02:16.276Z,98251.00
2023-04-20T07:07:38.102Z,98255.00
2023-04-20T07:12:59.320Z,98272.00
2023-04-20T07:18:21.025Z,98280.00
2023-04-20T07:23:44.795Z,98275.00
2023-04-20T07:29:06.329Z,98271.00
2023-04-20T07:34:27.623Z,98275.00
2023-04-20T07:39:49.216Z,98257.00
2023-04-20T07:45:12.632Z,98251.00
2023-04-20T07:50:33.927Z,98267.00
2023-04-20T07:55:55.656Z,98280.00
2023-04-20T08:01:17.289Z,98285.00
2023-04-20T08:06:38.650Z,98274.00
2023-04-20T08:12:00.731Z,98258.00
2023-04-20T08:17:22.280Z,98266.00
2023-04-20T08:22:43.531Z,98258.00
2023-04-20T08:28:08.662Z,98278.00
2023-04-20T08:33:30.334Z,98275.00
2023-04-20T08:39:06.141Z,98266.00
2023-04-20T08:44:27.742Z,98257.00
2023-04-20T08:49:52.648Z,98285.00
2023-04-20T08:55:20.623Z,98283.00
2023-04-20T09:00:49.688Z,98274.00
2023-04-20T09:06:18.711Z,98283.00
2023-04-20T09:11:41.055Z,98288.00
2023-04-20T09:17:05.197Z,98294.00
2023-04-20T09:22:34.674Z,98298.00
2023-04-20T09:27:57.993Z,98301.00
2023-04-20T09:33:19.699Z,98296.00
2023-04-20T09:38:41.221Z,98275.00
2023-04-20T09:44:02.843Z,98283.00
2023-04-20T09:49:25.561Z,98282.00
2023-04-20T09:54:47.295Z,98282.00
2023-04-20T10:00:12.821Z,98272.00
2023-04-20T10:05:39.812Z,98260.00
2023-04-20T10:11:01.068Z,98263.00
2023-04-20T10:16:23.265Z,98264.00
2023-04-20T10:21:51.535Z,98264.00
2023-04-20T10:27:22.961Z,98254.00
2023-04-20T10:32:44.306Z,98264.00
2023-04-20T10:38:07.245Z,98260.00
2023-04-20T10:43:28.879Z,98253.00
2023-04-20T10:48:55.198Z,98246.00
2023-04-20T10:54:18.281Z,98249.00
2023-04-20T10:59:42.148Z,98250.00
2023-04-20T11:05:12.651Z,98247.00
2023-04-20T11:10:42.289Z,98245.00
2023-04-20T11:16:14.512Z,98243.00
2023-04-20T11:21:41.235Z,98237.00
2023-04-20T11:27:04.885Z,98245.00
2023-04-20T11:32:27.545Z,98240.00
2023-04-20T11:37:53.843Z,98233.00
2023-04-20T11:43:15.247Z,98231.00
2023-04-20T11:48:36.843Z,98221.00
2023-04-20T11:53:58.415Z,98228.00
2023-04-20T11:59:21.153Z,98226.00
2023-04-20T12:05:03.283Z,98231.00
2023-04-20T12:10:28.031Z,98234.00
2023-04-20T12:15:58.319Z,98218.00
2023-04-20T12:21:37.681Z,98213.00
2023-04-20T12:27:23.337Z,98208.00
2023-04-20T12:33:07.404Z,98209.00
2023-04-20T12:38:50.294Z,98202.00
2023-04-20T12:44:17.625Z,98200.00
2023-04-20T12:49:40.862Z,98191.00
2023-04-20T12:55:02.494Z,98191.00
2023-04-20T13:00:24.168Z,98195.00
2023-04-20T13:06:06.324Z,98201.00
2023-04-20T13:11:33.458Z,98199.00
2023-04-20T13:17:08.476Z,98188.00
2023-04-20T13:22:57.517Z,98190.00
2023-04-20T13:28:23.768Z,98189.00
2023-04-20T13:34:06.696Z,98186.00
2023-04-20T13:39:30.636Z,98188.00
2023-04-20T13:44:52.473Z,98192.00
2023-04-20T13:50:14.120Z,98198.00
2023-04-20T13:55:35.771Z,98183.00
2023-04-20T14:00:57.303Z,98187.00
2023-04-20T14:06:37.116Z,98179.00
2023-04-20T14:12:23.903Z,98184.00
2023-04-20T14:18:03.070Z,98174.00
2023-04-20T14:23:32.288Z,98193.00
2023-04-20T14:29:02.780Z,98180.00
2023-04-20T14:34:29.725Z,98174.00
2023-04-20T14:39:51.501Z,98187.00
2023-04-20T14:45:14.018Z,98178.00
2023-04-20T14:50:35.804Z,98172.00
2023-04-20T14:56:17.374Z,98172.00
2023-04-20T15:07:42.990Z,98175.00
2023-04-20T15:13:21.044Z,98145.00
2023-04-20T15:19:03.326Z,98146.00
2023-04-20T15:24:31.315Z,98145.00
2023-04-20T15:29:54.218Z,98141.00
2023-04-20T15:35:15.578Z,98138.00
2023-04-20T15:40:38.850Z,98137.00
2023-04-20T15:46:31.602Z,98152.00
2023-04-20T15:52:13.878Z,98140.00
2023-04-20T15:57:46.645Z,98144.00
2023-04-20T16:03:35.880Z,98139.00
2023-04-20T16:09:13.327Z,98137.00
2023-04-20T16:14:36.169Z,98133.00
2023-04-20T16:19:57.473Z,98124.00
2023-04-20T16:25:23.304Z,98125.00
2023-04-20T16:30:45.223Z,98127.00
2023-04-20T16:36:26.196Z,98122.00
2023-04-20T16:41:48.111Z,98122.00
2023-04-20T16:47:24.553Z,98105.00
2023-04-20T16:52:57.071Z,98109.00
2023-04-20T16:58:31.056Z,98109.00
2023-04-20T17:03:59.808Z,98099.00
2023-04-20T17:09:22.590Z,98104.00
2023-04-20T17:14:43.944Z,98098.00
2023-04-20T17:20:07.355Z,98101.00
2023-04-20T17:25:31.040Z,98094.00
2023-04-20T17:31:11.967Z,98095.00
2023-04-20T17:37:06.662Z,98078.00
2023-04-20T17:42:57.461Z,98078.00
2023-04-20T17:48:31.054Z,98083.00
2023-04-20T17:54:02.273Z,98093.00
2023-04-20T17:59:31.639Z,98079.00
2023-04-20T18:05:04.035Z,98092.00
2023-04-20T18:10:29.904Z,98098.00
2023-04-20T18:16:07.934Z,98092.00
2023-04-20T18:21:55.131Z,98103.00
2023-04-20T18:27:30.251Z,98100.00
2023-04-20T18:33:11.307Z,98106.00
2023-04-20T18:38:38.186Z,98109.00
2023-04-20T18:44:07.991Z,98108.00
2023-04-20T18:49:36.242Z,98123.00
2023-04-20T18:54:58.020Z,98110.00
2023-04-20T19:00:19.844Z,98117.00
2023-04-20T19:05:57.690Z,98115.00
2023-04-20T19:11:31.507Z,98108.00
2023-04-20T19:17:15.331Z,98111.00
2023-04-20T19:22:53.449Z,98112.00
2023-04-20T19:28:37.833Z,98114.00
2023-04-20T19:34:13.176Z,98114.00
2023-04-20T19:39:44.929Z,98124.00
2023-04-20T19:45:07.093Z,98113.00
2023-04-20T19:50:32.494Z,98113.00
2023-04-20T20:02:11.832Z,98111.00
2023-04-20T20:07:34.208Z,98110.00
2023-04-20T20:13:03.676Z,98098.00
2023-04-20T20:18:45.078Z,98090.00
2023-04-20T20:24:13.630Z,98097.00
2023-04-20T20:29:35.900Z,98094.00
2023-04-20T20:34:57.516Z,98093.00
2023-04-20T20:40:19.404Z,98100.00
2023-04-20T20:45:41.632Z,98092.00
2023-04-20T20:51:30.547Z,98099.00
2023-04-20T20:57:20.265Z,98097.00
2023-04-20T21:02:52.368Z,98096.00
2023-04-20T21:08:13.703Z,98099.00
2023-04-20T21:13:53.796Z,98110.00
2023-04-20T21:19:21.516Z,98102.00
2023-04-20T21:24:43.180Z,98100.00
2023-04-20T21:30:05.515Z,98105.00
2023-04-20T21:35:31.331Z,98108.00
2023-04-20T21:41:06.003Z,98098.00
2023-04-20T21:47:02.831Z,98104.00
2023-04-20T21:52:48.497Z,98099.00
2023-04-20T21:58:24.735Z,98100.00
2023-04-20T22:10:06.958Z,98101.00
2023-04-20T22:15:30.405Z,98107.00
2023-04-20T22:21:04.994Z,98119.00
2023-04-20T22:26:48.751Z,98110.00
2023-04-20T22:32:30.660Z,98119.00
2023-04-20T22:37:59.777Z,98112.00
2023-04-20T22:43:33.297Z,98113.00
2023-04-20T22:49:03.374Z,98125.00
2023-04-20T22:54:25.729Z,98115.00
2023-04-20T22:59:48.937Z,98125.00
2023-04-20T23:05:33.666Z,98114.00
2023-04-20T23:11:21.814Z,98117.00
2023-04-20T23:17:01.008Z,98116.00
2023-04-20T23:22:52.388Z,98117.00
2023-04-20T23:28:28.145Z,98121.00
2023-04-20T23:33:58.081Z,98121.00
2023-04-20T23:39:26.298Z,98120.00
2023-04-20T23:44:48.127Z,98110.00
2023-04-20T23:50:09.952Z,98114.00
2023-04-20T23:55:32.045Z,98108.00
